Atlantic - Newfoundland: Past 24 Hour Conditions

 

St. John's Int'l Airport

03:30 AM NDT 03 August 2015
Disclaimer

This table is a summary of hourly weather conditions for the past 24 hours.
Please note that these observations might not always be representative of weather conditions over their associated marine area.

Date / Time
(NDT)
Wind(knots) Conditions Visibility(km) Pressure(kPa) Air tempC) Relative humidity(%) Dew pointC) Humidex
03 August 2015
3:30 WSW 13 Clear 24 100.9 14 95 13 *
2:30 W 15 Clear 24 100.9 15 91 13 *
1:30 W 11 gust 18 Clear 24 100.9 15 89 13 *
0:30 W 14 gust 20 Clear 24 100.8 15 89 14 *
02 August 2015
23:30 WSW 16 gust 23 Clear 24 100.8 16 92 14 *
22:30 WSW 16 gust 22 Mainly Clear 24 100.8 16 93 15 *
21:30 WSW 14 gust 19 Partly Cloudy 24 100.8 17 91 16 *
20:30 WSW 14 gust 22 Partly Cloudy 24 100.7 19 86 17 *
19:30 SW 15 gust 24 Mainly Sunny 24 100.7 23 66 16 28
18:30 SW 16 gust 22 Mainly Sunny 24 100.6 26 51 15 30
17:30 WSW 13 Mostly Cloudy 24 100.7 27 51 16 31
16:30 SW 12 gust 18 Partly Cloudy 24 100.7 26 52 16 31
15:30 WSW 13 Partly Cloudy 24 100.7 27 56 17 32
14:30 WSW 12 gust 18 Partly Cloudy 24 100.8 26 61 18 32
13:30 WSW 12 Mainly Sunny 24 100.8 25 64 18 31
12:30 WSW 14 Mainly Sunny 24 100.8 23 71 18 29
11:30 WSW 10 gust 16 Partly Cloudy 24 100.8 21 78 17 27
10:30 WSW 8 Mostly Cloudy 24 100.8 20 87 17 *
9:30 WSW 9 Mist 8 100.8 16 96 16 *
8:30 SW 7 Mist 6 100.8 16 99 16 *
7:30 WSW 7 Light Drizzle 5 100.8 16 99 16 *
6:30 WSW 8 Light Drizzle 5 100.8 15 100 15 *
5:30 WSW 6 Mist 2 100.7 15 100 15 *
4:30 W 7 Mostly Cloudy 13 100.7 15 100 15 *
3:30 SW 2 Cloudy 13 100.8 15 99 14 *

Zoom-in to make a selection

Map of Atlantic - Newfoundland marine weather areas Southwestern Grand Banks - 44138 Banquereau - 44139 Tail of the Bank - 44140 Nickerson Bank - 44251 Northeast Burgeo Bank - 44255 Blanc-Sablon Airport Cap Whittle Chevery Natashquan Airport Heath Point Miscou Island Grand Étang Ingonish Beach North Mountain St.Paul Island J.A. Douglas McCurdy Sydney Airport Charlottetown Airport East Point North Cape Argentia Bonavista Burgeo Cape Race Corner Brook Daniel's Harbour Englee Ferolle Point La Scie Port aux Basques Rocky Harbour Sagona Island St. Anthony Airport St. John's Int'l Airport St. Lawrence Stephenville Airport Twillingate Winterland Wreckhouse Cartwright Airport Mary's Harbour Grates Cove Pool's Island Marticot Island Long Pond Eskasoni (First Nations) Îles de la Madeleine Airport
Legend:
buoy Buoy
land station Land Station

Atlantic - Newfoundland Area

Another Region

What we are doing

Date modified: